Time;durP1;ratioP1;P1;durP2;ratioP2;P2;SDS_P1;SDS_P2;PMS_P1;PMS_P2;Temp;Humidity;BMP_temperature;BMP_pressure;BME280_temperature;BME280_humidity;BME280_pressure;Samples;Min_cycle;Max_cycle;Signal;HPM_P1;HPM_P2
2022/02/24 00:00:38;;;;;;;10.83;7.57;;;7.80;75.10;;;;;;5057400;28;20457;-50
2022/02/24 00:03:05;;;;;;;12.70;10.03;;;7.80;75.30;;;;;;5057907;28;20490;-49
2022/02/24 00:05:32;;;;;;;15.33;10.80;;;7.80;75.50;;;;;;5059753;28;20477;-50
2022/02/24 00:08:01;;;;;;;13.57;10.60;;;7.80;75.70;;;;;;5044230;28;20454;-50
2022/02/24 00:10:28;;;;;;;12.83;7.93;;;7.90;75.80;;;;;;5047105;28;20454;-50
2022/02/24 00:12:55;;;;;;;17.33;8.90;;;7.90;75.70;;;;;;5033640;28;20460;-49
2022/02/24 00:15:22;;;;;;;11.40;8.90;;;7.80;75.70;;;;;;5055894;28;20977;-49
2022/02/24 00:17:48;;;;;;;18.13;10.30;;;7.80;75.80;;;;;;5058178;28;20445;-50
2022/02/24 00:20:15;;;;;;;15.63;8.77;;;7.80;75.80;;;;;;5059102;28;20489;-51
2022/02/24 00:22:42;;;;;;;12.10;7.90;;;7.90;75.60;;;;;;5059922;28;20491;-50
2022/02/24 00:25:10;;;;;;;7.90;6.40;;;7.90;75.70;;;;;;5059227;28;21031;-49
2022/02/24 00:27:37;;;;;;;12.50;7.60;;;7.90;75.80;;;;;;5060163;28;20963;-50
2022/02/24 00:30:08;;;;;;;12.47;7.93;;;7.90;75.90;;;;;;5059951;28;20577;-50
2022/02/24 00:32:35;;;;;;;9.77;7.13;;;7.90;75.90;;;;;;5060547;28;20566;-50
2022/02/24 00:35:02;;;;;;;10.37;6.43;;;7.90;76.10;;;;;;5059061;28;20449;-49
2022/02/24 00:37:29;;;;;;;9.63;6.13;;;8.00;76.10;;;;;;5055900;28;20472;-51
2022/02/24 00:39:56;;;;;;;14.60;8.10;;;8.00;75.90;;;;;;5039513;28;20896;-50
2022/02/24 00:42:22;;;;;;;9.87;6.97;;;8.00;75.70;;;;;;5057949;28;20600;-50
2022/02/24 00:44:49;;;;;;;11.27;7.50;;;7.90;75.80;;;;;;5025229;28;20744;-50
2022/02/24 00:47:17;;;;;;;10.30;7.33;;;7.80;76.00;;;;;;5061055;28;20470;-50
2022/02/24 00:49:44;;;;;;;13.23;8.30;;;7.90;76.20;;;;;;5058718;28;20682;-50
2022/02/24 00:52:12;;;;;;;12.13;7.53;;;7.90;76.10;;;;;;5058497;28;20550;-50
2022/02/24 00:54:39;;;;;;;9.20;7.30;;;7.90;76.20;;;;;;5039369;28;20472;-50
2022/02/24 00:57:06;;;;;;;12.47;7.00;;;7.80;76.10;;;;;;5061691;28;20617;-50
2022/02/24 00:59:32;;;;;;;8.20;5.80;;;7.80;76.50;;;;;;5057612;28;20569;-50
2022/02/24 01:01:59;;;;;;;9.67;6.67;;;7.90;76.50;;;;;;5058166;28;20534;-50
2022/02/24 01:04:26;;;;;;;10.50;6.50;;;7.80;76.30;;;;;;5058758;28;20477;-50
2022/02/24 01:06:53;;;;;;;11.50;6.83;;;7.80;76.50;;;;;;5058675;28;20486;-51
2022/02/24 01:09:20;;;;;;;7.77;6.17;;;7.80;76.60;;;;;;5055388;28;20921;-50
2022/02/24 01:11:48;;;;;;;6.03;5.30;;;7.80;76.70;;;;;;5057613;28;20469;-50
2022/02/24 01:14:18;;;;;;;11.73;6.17;;;7.80;76.80;;;;;;5057662;28;20879;-50
2022/02/24 01:16:45;;;;;;;14.30;7.50;;;7.80;76.70;;;;;;5061788;28;20461;-50
2022/02/24 01:19:12;;;;;;;11.13;6.87;;;7.80;76.80;;;;;;5055525;28;20501;-50
2022/02/24 01:21:39;;;;;;;9.27;5.67;;;7.80;76.90;;;;;;5037487;28;20451;-50
2022/02/24 01:24:05;;;;;;;9.50;6.40;;;7.80;76.90;;;;;;5039205;28;20963;-50
2022/02/24 01:26:32;;;;;;;7.70;6.33;;;7.70;77.00;;;;;;5058985;28;20465;-50
2022/02/24 01:28:59;;;;;;;9.73;5.80;;;7.80;77.00;;;;;;5061824;28;20460;-50
2022/02/24 01:31:26;;;;;;;6.80;6.00;;;7.90;76.70;;;;;;5057635;28;20445;-50
2022/02/24 01:33:53;;;;;;;5.87;5.23;;;7.90;76.90;;;;;;5059540;28;20455;-50
2022/02/24 01:36:20;;;;;;;9.30;5.63;;;7.80;77.00;;;;;;5057097;28;20476;-50
2022/02/24 01:38:47;;;;;;;7.27;5.67;;;7.80;77.20;;;;;;5038893;28;20449;-50
2022/02/24 01:41:14;;;;;;;6.67;4.60;;;7.80;77.20;;;;;;5056687;28;20966;-50
2022/02/24 01:43:46;;;;;;;6.37;4.90;;;7.70;77.30;;;;;;5044563;28;20493;-51
2022/02/24 01:46:14;;;;;;;6.30;5.10;;;7.80;77.40;;;;;;5058499;28;20547;-50
2022/02/24 01:48:42;;;;;;;14.37;5.87;;;7.80;77.30;;;;;;5057800;28;20465;-50
2022/02/24 01:51:10;;;;;;;7.53;5.03;;;7.80;77.30;;;;;;5053539;28;20908;-50
2022/02/24 01:53:37;;;;;;;8.10;5.60;;;7.80;77.20;;;;;;5055411;28;21298;-50
2022/02/24 01:56:04;;;;;;;7.60;5.20;;;7.70;77.30;;;;;;5054628;28;20472;-50
2022/02/24 01:58:31;;;;;;;6.03;5.43;;;7.70;77.40;;;;;;5037615;28;20462;-50
2022/02/24 02:00:58;;;;;;;11.20;6.70;;;7.70;77.40;;;;;;5051062;28;21172;-50
2022/02/24 02:03:25;;;;;;;10.40;6.60;;;7.70;77.20;;;;;;5054638;28;20513;-50
2022/02/24 02:05:58;;;;;;;8.63;6.30;;;7.70;77.00;;;;;;5040515;28;20817;-50
2022/02/24 02:08:27;;;;;;;11.03;5.87;;;7.70;77.10;;;;;;5053893;28;20486;-50
2022/02/24 02:10:54;;;;;;;7.10;4.70;;;7.80;77.00;;;;;;5053679;28;20462;-50
2022/02/24 02:13:20;;;;;;;6.23;5.43;;;7.70;77.00;;;;;;5055560;28;20488;-50
2022/02/24 02:15:47;;;;;;;16.37;5.27;;;7.60;77.10;;;;;;5052814;28;20962;-50
2022/02/24 02:18:14;;;;;;;7.73;5.43;;;7.60;77.10;;;;;;5057564;28;20461;-50
2022/02/24 02:20:41;;;;;;;7.17;6.00;;;7.70;77.40;;;;;;5055898;28;20857;-50
2022/02/24 02:23:07;;;;;;;7.23;5.90;;;7.70;77.30;;;;;;5062674;28;20526;-50
2022/02/24 02:25:38;;;;;;;11.53;6.73;;;7.70;77.30;;;;;;5033424;28;20453;-50
2022/02/24 02:28:04;;;;;;;6.83;5.50;;;7.60;77.30;;;;;;5052238;28;20824;-50
2022/02/24 02:30:31;;;;;;;8.07;5.67;;;7.60;77.30;;;;;;5051900;28;20461;-50
2022/02/24 02:32:58;;;;;;;11.87;5.53;;;7.60;77.30;;;;;;5054245;28;20462;-50
2022/02/24 02:35:26;;;;;;;10.40;5.00;;;7.60;77.40;;;;;;5057556;28;20470;-50
2022/02/24 02:37:53;;;;;;;9.73;5.67;;;7.70;77.60;;;;;;5056618;28;20512;-50
2022/02/24 02:40:19;;;;;;;6.80;5.37;;;7.70;77.60;;;;;;5042838;28;20801;-50
2022/02/24 02:42:46;;;;;;;7.47;5.93;;;7.70;77.60;;;;;;5058767;28;20545;-50
2022/02/24 02:45:13;;;;;;;8.33;5.63;;;7.70;77.60;;;;;;5055766;28;20552;-50
2022/02/24 02:47:43;;;;;;;13.37;8.10;;;7.80;77.60;;;;;;5057774;28;20475;-50
2022/02/24 02:50:10;;;;;;;9.87;6.27;;;7.70;77.50;;;;;;5037701;28;20466;-50
2022/02/24 02:52:42;;;;;;;10.07;6.70;;;7.70;77.60;;;;;;5038261;28;21138;-50
2022/02/24 02:55:11;;;;;;;8.37;6.90;;;7.70;77.60;;;;;;5051062;28;20845;-50
2022/02/24 02:57:39;;;;;;;6.87;6.00;;;7.80;77.50;;;;;;5040955;28;20462;-50
2022/02/24 03:00:08;;;;;;;11.60;6.60;;;7.80;77.60;;;;;;5044980;28;20942;-50
2022/02/24 03:02:35;;;;;;;8.73;5.63;;;7.70;77.70;;;;;;5053804;28;20527;-50
2022/02/24 03:05:03;;;;;;;6.10;5.40;;;7.80;77.50;;;;;;5053366;28;20822;-51
2022/02/24 03:07:30;;;;;;;10.30;6.17;;;7.80;77.70;;;;;;5058064;28;20770;-50
2022/02/24 03:09:57;;;;;;;7.50;5.23;;;7.80;77.60;;;;;;5059044;28;20537;-50
2022/02/24 03:12:24;;;;;;;5.73;4.97;;;7.70;77.70;;;;;;5057086;28;20470;-50
2022/02/24 03:14:51;;;;;;;10.20;6.37;;;7.80;77.80;;;;;;5053073;28;20831;-50
2022/02/24 03:17:19;;;;;;;6.17;4.77;;;7.80;77.90;;;;;;5057375;28;20831;-46
2022/02/24 03:19:45;;;;;;;8.50;5.50;;;7.80;77.80;;;;;;5035861;28;20975;-50
2022/02/24 03:22:13;;;;;;;7.70;5.23;;;7.80;77.90;;;;;;5051878;28;20485;-50
2022/02/24 03:24:39;;;;;;;10.53;6.40;;;7.80;78.00;;;;;;5053209;28;20977;-50
2022/02/24 03:27:07;;;;;;;6.20;4.80;;;7.70;78.00;;;;;;5055503;28;20876;-50
2022/02/24 03:29:34;;;;;;;10.23;4.57;;;7.80;78.20;;;;;;5035074;28;20576;-51
2022/02/24 03:32:01;;;;;;;10.33;5.03;;;7.80;78.20;;;;;;5056627;28;20884;-50
2022/02/24 03:34:30;;;;;;;9.37;5.77;;;7.80;78.20;;;;;;5056002;28;20450;-50
2022/02/24 03:36:57;;;;;;;6.97;5.10;;;7.90;77.90;;;;;;5060720;28;21026;-50
2022/02/24 03:39:24;;;;;;;6.13;5.50;;;7.80;78.00;;;;;;5057680;28;20951;-50
2022/02/24 03:41:51;;;;;;;7.57;5.47;;;7.80;78.00;;;;;;5037066;28;20471;-50
2022/02/24 03:44:19;;;;;;;6.73;5.10;;;7.70;78.10;;;;;;5053993;28;20901;-50
2022/02/24 03:46:46;;;;;;;6.23;5.40;;;7.70;78.30;;;;;;5054121;28;20505;-50
2022/02/24 03:49:13;;;;;;;7.27;5.13;;;7.70;78.30;;;;;;5052864;28;21005;-50
2022/02/24 03:51:40;;;;;;;9.30;5.13;;;7.70;78.30;;;;;;5052310;28;20450;-50
2022/02/24 03:54:07;;;;;;;7.37;5.53;;;7.70;78.40;;;;;;5054438;28;20460;-50
2022/02/24 03:56:34;;;;;;;7.60;5.20;;;7.70;78.40;;;;;;5053884;28;20474;-50
2022/02/24 03:59:02;;;;;;;9.23;5.70;;;7.70;78.50;;;;;;5052673;28;20466;-50
2022/02/24 04:01:29;;;;;;;8.93;5.77;;;7.70;78.50;;;;;;5058839;28;20543;-50
2022/02/24 04:03:56;;;;;;;10.47;5.80;;;7.70;78.70;;;;;;5059491;28;20481;-50
2022/02/24 04:06:22;;;;;;;11.03;6.37;;;7.70;78.80;;;;;;5052411;28;20489;-50
2022/02/24 04:08:49;;;;;;;7.53;4.37;;;7.60;78.90;;;;;;5040853;28;20450;-49
2022/02/24 04:11:16;;;;;;;13.07;6.50;;;7.70;78.90;;;;;;5054304;28;20468;-50
2022/02/24 04:13:43;;;;;;;7.20;5.30;;;7.70;79.00;;;;;;5054178;28;20994;-50
2022/02/24 04:16:10;;;;;;;7.03;5.30;;;7.70;79.00;;;;;;5037170;28;20982;-50
2022/02/24 04:18:37;;;;;;;9.20;5.73;;;7.60;79.10;;;;;;5023609;28;20461;-50
2022/02/24 04:21:06;;;;;;;9.03;5.40;;;7.70;79.00;;;;;;5053496;28;20725;-50
2022/02/24 04:23:33;;;;;;;7.83;7.03;;;7.70;79.00;;;;;;5036823;28;20497;-50
2022/02/24 04:26:00;;;;;;;11.57;7.60;;;7.70;78.90;;;;;;5054428;28;20863;-50
2022/02/24 04:28:27;;;;;;;10.50;7.47;;;7.70;78.90;;;;;;5053199;28;20527;-50
2022/02/24 04:30:54;;;;;;;9.23;6.03;;;7.70;78.90;;;;;;5050802;28;20541;-50
2022/02/24 04:33:20;;;;;;;11.63;6.67;;;7.70;78.80;;;;;;5053980;28;20497;-50
2022/02/24 04:35:47;;;;;;;10.40;6.50;;;7.70;78.80;;;;;;5051801;28;20493;-50
2022/02/24 04:38:14;;;;;;;8.83;6.30;;;7.80;78.90;;;;;;5052336;28;20571;-50
2022/02/24 04:40:41;;;;;;;12.73;7.20;;;7.70;78.80;;;;;;5053008;28;20470;-50
2022/02/24 04:43:07;;;;;;;8.20;6.40;;;7.70;78.90;;;;;;5051989;28;20980;-50
2022/02/24 04:45:34;;;;;;;11.83;7.07;;;7.70;78.80;;;;;;5057603;28;20498;-50
2022/02/24 04:48:01;;;;;;;13.63;6.90;;;7.70;78.80;;;;;;5040335;28;20505;-50
2022/02/24 04:50:28;;;;;;;13.00;7.27;;;7.70;78.70;;;;;;5045083;28;20466;-50
2022/02/24 04:52:54;;;;;;;8.33;6.83;;;7.70;78.50;;;;;;5052807;28;20974;-50
2022/02/24 04:55:21;;;;;;;11.80;6.77;;;7.70;78.50;;;;;;5059749;28;20938;-50
2022/02/24 04:57:49;;;;;;;8.70;6.63;;;7.70;78.50;;;;;;5058634;28;20889;-50
2022/02/24 05:00:17;;;;;;;9.30;6.10;;;7.70;78.40;;;;;;5053561;28;20493;-50
2022/02/24 05:02:44;;;;;;;10.97;7.93;;;7.70;78.40;;;;;;5051659;28;20941;-49
2022/02/24 05:05:11;;;;;;;9.10;6.83;;;7.80;78.20;;;;;;5055887;28;20505;-50
2022/02/24 05:07:38;;;;;;;11.90;7.00;;;7.70;78.30;;;;;;5040603;28;20541;-49
2022/02/24 05:10:07;;;;;;;10.53;7.43;;;7.70;78.40;;;;;;5057501;28;22081;-50
2022/02/24 05:12:34;;;;;;;12.03;7.40;;;7.70;78.40;;;;;;5054065;28;20458;-49
2022/02/24 05:15:00;;;;;;;11.07;7.30;;;7.70;78.40;;;;;;5036309;28;20850;-50
2022/02/24 05:17:27;;;;;;;9.53;7.53;;;7.70;78.50;;;;;;5055004;28;20472;-49
2022/02/24 05:19:54;;;;;;;13.57;9.60;;;7.80;78.20;;;;;;5052248;28;21015;-49
2022/02/24 05:22:23;;;;;;;13.93;8.87;;;7.80;78.00;;;;;;5039780;28;20471;-49
2022/02/24 05:24:51;;;;;;;9.70;7.87;;;7.70;78.30;;;;;;5055522;28;20489;-49
2022/02/24 05:27:20;;;;;;;12.63;8.77;;;7.70;78.30;;;;;;5038782;28;20549;-49
2022/02/24 05:29:47;;;;;;;8.80;7.90;;;7.70;78.30;;;;;;5051571;28;20553;-49
2022/02/24 05:32:14;;;;;;;11.93;7.67;;;7.70;78.30;;;;;;5059557;28;20512;-49
2022/02/24 05:34:41;;;;;;;8.40;6.97;;;7.70;78.20;;;;;;5039229;28;20490;-50
2022/02/24 05:37:08;;;;;;;13.50;7.27;;;7.70;78.10;;;;;;5053094;28;20520;-49
2022/02/24 05:39:35;;;;;;;12.43;7.63;;;7.70;78.30;;;;;;5057899;28;20548;-49
2022/02/24 05:42:02;;;;;;;14.83;8.00;;;7.70;78.30;;;;;;5051366;28;20528;-49
2022/02/24 05:44:29;;;;;;;12.10;8.10;;;7.70;78.20;;;;;;5053827;28;20609;-50
2022/02/24 05:46:57;;;;;;;26.93;10.00;;;7.70;78.20;;;;;;5060387;28;20474;-50
2022/02/24 05:49:24;;;;;;;10.03;7.50;;;7.70;78.20;;;;;;5052084;28;20485;-50
2022/02/24 05:51:51;;;;;;;11.60;7.47;;;7.70;78.30;;;;;;5058897;28;20481;-50
2022/02/24 05:54:18;;;;;;;12.30;6.73;;;7.70;78.30;;;;;;5051527;28;20544;-50
2022/02/24 05:56:46;;;;;;;9.03;7.27;;;7.70;78.40;;;;;;5055476;28;20466;-49
2022/02/24 05:59:13;;;;;;;7.80;7.00;;;7.70;78.50;;;;;;5051290;28;20461;-50
2022/02/24 06:01:39;;;;;;;11.60;7.40;;;7.70;78.70;;;;;;5034059;28;20552;-50
2022/02/24 06:04:06;;;;;;;9.07;6.90;;;7.70;78.70;;;;;;5039323;28;20482;-49
2022/02/24 06:06:33;;;;;;;13.57;6.30;;;7.80;78.70;;;;;;5057639;28;20699;-50
2022/02/24 06:08:59;;;;;;;13.13;8.00;;;7.70;78.50;;;;;;5054926;28;20980;-49
2022/02/24 06:11:26;;;;;;;7.90;6.20;;;7.70;78.80;;;;;;5052066;28;20449;-49
2022/02/24 06:13:53;;;;;;;6.23;5.63;;;7.80;78.60;;;;;;5048820;28;20897;-49
2022/02/24 06:16:20;;;;;;;12.67;6.87;;;7.80;78.50;;;;;;5052463;28;20846;-49
2022/02/24 06:18:47;;;;;;;8.67;5.83;;;7.80;78.70;;;;;;5053435;28;20544;-49
2022/02/24 06:21:16;;;;;;;10.83;6.90;;;7.70;79.00;;;;;;5056017;28;20457;-50
2022/02/24 06:23:46;;;;;;;10.40;6.07;;;7.70;79.00;;;;;;5040378;28;20486;-50
2022/02/24 06:26:13;;;;;;;13.07;6.33;;;7.70;78.90;;;;;;5055036;28;20469;-50
2022/02/24 06:28:40;;;;;;;9.13;6.10;;;7.70;78.90;;;;;;5055074;28;20502;-50
2022/02/24 06:31:07;;;;;;;10.43;6.70;;;7.70;78.90;;;;;;5058402;28;20835;-49
2022/02/24 06:33:35;;;;;;;6.53;5.63;;;7.70;78.90;;;;;;5053164;28;20561;-50
2022/02/24 06:36:03;;;;;;;10.53;6.53;;;7.70;78.70;;;;;;5048700;28;20963;-49
2022/02/24 06:38:30;;;;;;;11.63;6.73;;;7.70;78.90;;;;;;5034875;28;20492;-49
2022/02/24 06:40:57;;;;;;;8.57;7.03;;;7.70;79.00;;;;;;5054071;28;20982;-49
2022/02/24 06:43:25;;;;;;;11.40;6.90;;;7.70;79.00;;;;;;5054856;28;20461;-49
2022/02/24 06:45:52;;;;;;;11.60;7.47;;;7.70;79.00;;;;;;5052134;28;20454;-49
2022/02/24 06:48:19;;;;;;;11.17;7.50;;;7.70;78.90;;;;;;5034530;28;20583;-49
2022/02/24 06:50:48;;;;;;;8.77;5.63;;;7.70;78.90;;;;;;5051064;28;20457;-49
2022/02/24 06:53:15;;;;;;;12.80;7.17;;;7.70;79.00;;;;;;5053650;28;20477;-50
2022/02/24 06:55:41;;;;;;;6.10;5.50;;;7.70;78.90;;;;;;5052695;28;20476;-49
2022/02/24 06:58:08;;;;;;;13.87;7.03;;;7.70;78.90;;;;;;5051913;28;20489;-49
2022/02/24 07:00:35;;;;;;;8.50;6.67;;;7.70;78.90;;;;;;5054258;28;20461;-49
2022/02/24 07:03:04;;;;;;;10.60;6.67;;;7.70;78.70;;;;;;5050437;28;20470;-49
2022/02/24 07:05:31;;;;;;;9.23;6.60;;;7.70;78.70;;;;;;5052133;28;20580;-49
2022/02/24 07:07:58;;;;;;;9.67;6.40;;;7.70;79.10;;;;;;5041167;28;21050;-49
2022/02/24 07:10:24;;;;;;;7.00;6.30;;;7.70;79.30;;;;;;5053658;28;20501;-49
2022/02/24 07:12:51;;;;;;;10.13;6.17;;;7.70;79.40;;;;;;5059089;28;20447;-49
2022/02/24 07:15:18;;;;;;;8.17;6.27;;;7.70;79.40;;;;;;5054340;28;20501;-49
2022/02/24 07:17:47;;;;;;;9.23;7.03;;;7.70;79.50;;;;;;5038150;28;20963;-49
2022/02/24 07:20:15;;;;;;;9.43;7.77;;;7.70;79.60;;;;;;5054890;28;20485;-49
2022/02/24 07:22:43;;;;;;;15.07;7.80;;;7.80;79.80;;;;;;5055806;28;20457;-49
2022/02/24 07:25:12;;;;;;;13.40;6.80;;;7.70;79.80;;;;;;5039080;28;20872;-49
2022/02/24 07:27:39;;;;;;;8.60;6.77;;;7.80;79.80;;;;;;5052135;28;20481;-50
2022/02/24 07:30:10;;;;;;;11.43;7.67;;;7.80;79.60;;;;;;5048002;28;20458;-49
2022/02/24 07:32:37;;;;;;;11.30;7.47;;;7.80;79.70;;;;;;5038866;28;21018;-49
2022/02/24 07:35:04;;;;;;;12.23;7.37;;;7.80;79.60;;;;;;5039454;28;20457;-49
2022/02/24 07:37:32;;;;;;;11.80;7.40;;;7.80;79.50;;;;;;5051175;28;20454;-49
2022/02/24 07:39:58;;;;;;;11.43;7.73;;;7.80;79.50;;;;;;5052436;28;20917;-49
2022/02/24 07:42:25;;;;;;;9.10;7.30;;;7.80;79.70;;;;;;5053050;28;20834;-50
2022/02/24 07:44:52;;;;;;;9.40;7.47;;;7.90;79.70;;;;;;5052931;28;20999;-49
2022/02/24 07:47:20;;;;;;;12.90;7.93;;;7.90;79.30;;;;;;5053986;28;20474;-49
2022/02/24 07:49:46;;;;;;;8.70;7.80;;;8.00;79.10;;;;;;5036668;28;20637;-49
2022/02/24 07:52:15;;;;;;;9.80;7.40;;;8.00;79.10;;;;;;5033510;28;20946;-49
2022/02/24 07:54:42;;;;;;;7.70;6.50;;;8.00;79.00;;;;;;5047937;28;20466;-50
2022/02/24 07:57:09;;;;;;;10.20;7.33;;;8.00;79.00;;;;;;5039539;28;20554;-50
2022/02/24 07:59:36;;;;;;;11.43;7.93;;;8.00;79.20;;;;;;5054254;28;20546;-50
2022/02/24 08:02:03;;;;;;;13.67;7.30;;;8.00;79.10;;;;;;5058626;28;20450;-50
2022/02/24 08:04:30;;;;;;;8.90;6.90;;;8.00;79.20;;;;;;5038755;28;21034;-50
2022/02/24 08:06:57;;;;;;;8.73;6.33;;;8.00;79.30;;;;;;5053506;28;20969;-50
2022/02/24 08:09:24;;;;;;;10.27;7.43;;;8.00;79.30;;;;;;5052598;28;20481;-50
2022/02/24 08:14:37;;;;;;;13.07;7.30;;;8.10;78.90;;;;;;5055248;28;20461;-50
2022/02/24 08:17:05;;;;;;;12.40;8.17;;;8.20;78.60;;;;;;5052790;28;20459;-50
2022/02/24 08:19:33;;;;;;;13.30;8.10;;;8.20;78.70;;;;;;5057641;28;21041;-49
2022/02/24 08:22:00;;;;;;;16.70;8.73;;;8.20;78.50;;;;;;5057034;28;20825;-50
2022/02/24 08:24:27;;;;;;;14.00;7.93;;;8.20;78.70;;;;;;5041116;28;20573;-50
2022/02/24 08:26:55;;;;;;;13.83;8.97;;;8.20;78.80;;;;;;5057596;28;20463;-50
2022/02/24 08:29:32;;;;;;;10.90;8.00;;;8.30;78.60;;;;;;5062247;28;21007;-49
2022/02/24 08:31:59;;;;;;;13.63;7.87;;;8.40;78.40;;;;;;5040373;28;21036;-49
2022/02/24 08:34:25;;;;;;;9.30;7.43;;;8.40;78.10;;;;;;5058304;28;20455;-50
2022/02/24 08:36:55;;;;;;;14.93;8.37;;;8.30;78.40;;;;;;5044860;28;20456;-49
2022/02/24 08:39:25;;;;;;;7.77;6.90;;;8.30;78.60;;;;;;5059872;28;21376;-49
2022/02/24 08:41:52;;;;;;;13.93;8.13;;;8.40;78.40;;;;;;5045929;28;20443;-49
2022/02/24 08:44:19;;;;;;;13.03;7.50;;;8.40;78.30;;;;;;5060253;28;20586;-49
2022/02/24 08:46:46;;;;;;;10.33;9.00;;;8.40;78.30;;;;;;5056664;28;20513;-49
2022/02/24 08:49:13;;;;;;;19.67;8.80;;;8.50;78.30;;;;;;5057664;28;20464;-49
2022/02/24 08:51:41;;;;;;;11.63;7.17;;;8.50;78.30;;;;;;5060823;28;20449;-49
2022/02/24 08:54:08;;;;;;;9.87;7.63;;;8.60;78.40;;;;;;5042210;28;20507;-49
2022/02/24 08:56:34;;;;;;;9.50;7.00;;;8.60;78.60;;;;;;5057396;28;20540;-49
2022/02/24 08:59:01;;;;;;;11.23;7.13;;;8.70;78.50;;;;;;5054916;28;21006;-49
2022/02/24 09:01:31;;;;;;;13.80;7.30;;;8.80;78.40;;;;;;5056653;28;20955;-49
2022/02/24 09:03:58;;;;;;;7.97;6.33;;;8.80;78.30;;;;;;5060168;28;20453;-49
2022/02/24 09:06:25;;;;;;;6.20;5.13;;;8.90;78.20;;;;;;5040756;28;20520;-49
2022/02/24 09:08:52;;;;;;;7.60;5.70;;;9.00;78.10;;;;;;5040988;28;20893;-50
2022/02/24 09:11:21;;;;;;;9.33;6.27;;;9.10;78.00;;;;;;5040647;28;21058;-50
2022/02/24 09:13:48;;;;;;;7.57;5.63;;;9.20;77.50;;;;;;5059871;28;20473;-50
2022/02/24 09:16:15;;;;;;;7.43;5.00;;;9.30;77.20;;;;;;5040484;28;20532;-50
2022/02/24 09:18:42;;;;;;;6.17;5.57;;;9.40;77.10;;;;;;5057335;28;20509;-49
2022/02/24 09:21:09;;;;;;;5.70;4.70;;;9.40;76.70;;;;;;5056264;28;20457;-49
2022/02/24 09:23:36;;;;;;;6.33;5.00;;;9.50;76.40;;;;;;5053716;28;20472;-50
2022/02/24 09:26:03;;;;;;;6.57;4.73;;;9.50;76.40;;;;;;5054562;28;20490;-49
2022/02/24 09:28:30;;;;;;;9.70;5.20;;;9.60;76.40;;;;;;5056975;28;20835;-50
2022/02/24 09:30:57;;;;;;;12.63;5.70;;;9.70;76.40;;;;;;5054997;28;20701;-50
2022/02/24 09:33:24;;;;;;;6.30;5.70;;;9.80;76.40;;;;;;5045352;28;20516;-49
2022/02/24 09:35:51;;;;;;;11.43;5.57;;;9.80;76.40;;;;;;5054130;28;20494;-50
2022/02/24 09:38:18;;;;;;;6.83;4.90;;;10.00;76.20;;;;;;5042405;28;21111;-49
2022/02/24 09:40:46;;;;;;;7.80;4.43;;;10.00;75.40;;;;;;5055095;28;20467;-50
2022/02/24 09:43:29;;;;;;;9.60;5.10;;;10.20;75.30;;;;;;5046408;28;20458;-50
2022/02/24 09:46:01;;;;;;;6.30;4.40;;;10.20;75.00;;;;;;5056301;28;20492;-49
2022/02/24 09:48:31;;;;;;;8.43;4.50;;;10.20;74.80;;;;;;5056324;28;20909;-49
2022/02/24 09:50:58;;;;;;;10.40;6.50;;;10.30;74.60;;;;;;5041128;28;20504;-49
2022/02/24 09:53:27;;;;;;;6.77;4.70;;;10.40;73.30;;;;;;5058438;28;20457;-49
2022/02/24 09:55:54;;;;;;;6.50;4.77;;;10.50;73.40;;;;;;5057787;28;20489;-49
2022/02/24 09:58:27;;;;;;;4.63;4.07;;;10.50;73.30;;;;;;5057593;28;20552;-49
2022/02/24 10:00:59;;;;;;;5.20;3.70;;;10.60;73.00;;;;;;5057259;28;20574;-49
2022/02/24 10:03:40;;;;;;;6.40;4.13;;;10.60;72.90;;;;;;5044284;28;20524;-50
2022/02/24 10:06:09;;;;;;;6.80;4.07;;;10.70;73.40;;;;;;5045030;28;21211;-49
2022/02/24 10:08:44;;;;;;;6.57;4.00;;;10.80;73.00;;;;;;5054651;28;20481;-50
2022/02/24 10:11:23;;;;;;;8.10;4.27;;;10.90;72.70;;;;;;5039746;28;21103;-50
2022/02/24 10:14:04;;;;;;;4.67;3.83;;;10.90;72.60;;;;;;5056589;28;20478;-50
2022/02/24 10:16:52;;;;;;;8.60;4.40;;;10.90;72.90;;;;;;5039344;28;20458;-50
2022/02/24 10:19:40;;;;;;;9.80;4.73;;;10.90;72.50;;;;;;5058756;28;20518;-49
2022/02/24 10:22:09;;;;;;;7.40;4.73;;;10.90;72.50;;;;;;5047260;28;20485;-50
2022/02/24 10:24:37;;;;;;;4.40;4.00;;;11.00;72.40;;;;;;5037949;28;20585;-50
2022/02/24 10:27:27;;;;;;;4.57;4.17;;;11.10;72.20;;;;;;5051372;28;20945;-50
2022/02/24 10:30:02;;;;;;;5.47;4.40;;;11.10;72.40;;;;;;5053765;28;20550;-49
2022/02/24 10:32:38;;;;;;;6.67;4.60;;;11.20;72.20;;;;;;5057390;28;20452;-49
2022/02/24 10:35:21;;;;;;;5.37;4.80;;;11.30;71.70;;;;;;5057833;28;20461;-50
2022/02/24 10:38:03;;;;;;;5.70;3.87;;;11.40;71.70;;;;;;5055372;28;21057;-49
2022/02/24 10:40:39;;;;;;;7.13;4.80;;;11.40;72.10;;;;;;5042107;28;20458;-48
2022/02/24 10:43:23;;;;;;;5.77;4.33;;;11.50;71.80;;;;;;5061791;28;20442;-48
2022/02/24 10:46:17;;;;;;;5.30;4.40;;;11.60;71.50;;;;;;5053584;28;20524;-49
2022/02/24 10:48:55;;;;;;;5.80;4.23;;;11.70;71.50;;;;;;5054294;28;21034;-49
2022/02/24 10:51:31;;;;;;;5.40;3.93;;;11.70;71.40;;;;;;5037535;28;20958;-49
2022/02/24 10:54:12;;;;;;;5.27;4.30;;;11.80;71.20;;;;;;5058959;28;20498;-50
2022/02/24 10:56:41;;;;;;;9.13;4.40;;;12.00;70.90;;;;;;5054983;28;20524;-49
2022/02/24 10:59:10;;;;;;;7.37;4.30;;;12.10;70.50;;;;;;5058911;28;20557;-50
2022/02/24 11:01:38;;;;;;;6.17;4.57;;;12.20;70.20;;;;;;5057341;28;20831;-50
2022/02/24 11:04:06;;;;;;;7.03;4.43;;;12.20;70.00;;;;;;5044737;28;20494;-50
2022/02/24 11:06:36;;;;;;;5.27;4.50;;;12.20;70.00;;;;;;5037072;28;20834;-50
2022/02/24 11:09:07;;;;;;;6.57;4.70;;;12.20;70.10;;;;;;5062651;28;20484;-50
2022/02/24 11:11:37;;;;;;;6.63;4.93;;;12.20;70.30;;;;;;5061876;28;20493;-50
2022/02/24 11:14:08;;;;;;;5.30;4.80;;;12.10;70.30;;;;;;5056903;28;20473;-49
2022/02/24 11:16:34;;;;;;;5.97;4.23;;;12.10;70.80;;;;;;5056115;28;20481;-49
2022/02/24 11:19:03;;;;;;;4.57;4.17;;;12.10;70.50;;;;;;5057348;28;20948;-49
2022/02/24 11:21:31;;;;;;;4.60;4.20;;;12.10;70.50;;;;;;5057081;28;20495;-49
2022/02/24 11:23:58;;;;;;;5.70;5.03;;;12.10;70.70;;;;;;5038951;28;20488;-48
2022/02/24 11:27:00;;;;;;;6.17;5.10;;;12.00;70.80;;;;;;5061071;28;20482;-49
2022/02/24 11:30:01;;;;;;;4.83;4.33;;;12.00;71.20;;;;;;5013699;28;20973;-49
2022/02/24 11:32:28;;;;;;;4.97;4.43;;;12.00;71.50;;;;;;5059227;28;20944;-48
2022/02/24 11:35:14;;;;;;;5.87;5.27;;;12.10;71.60;;;;;;5043691;28;20584;-49
2022/02/24 11:37:50;;;;;;;8.80;5.00;;;12.10;71.70;;;;;;5047764;28;20452;-49
2022/02/24 11:40:22;;;;;;;5.30;4.50;;;12.10;71.80;;;;;;5058189;28;20462;-48
2022/02/24 11:43:01;;;;;;;6.73;4.87;;;12.20;71.70;;;;;;5054257;28;20508;-48
2022/02/24 11:45:31;;;;;;;5.63;5.00;;;12.20;72.00;;;;;;5058650;28;20483;-49
2022/02/24 11:48:16;;;;;;;7.30;5.27;;;12.20;72.00;;;;;;5046367;28;20470;-49
2022/02/24 11:50:53;;;;;;;4.77;4.30;;;12.30;71.90;;;;;;5048435;28;20450;-49
2022/02/24 11:53:26;;;;;;;8.63;5.00;;;12.40;71.80;;;;;;5058210;28;20462;-49
2022/02/24 11:56:22;;;;;;;9.03;4.07;;;12.50;71.30;;;;;;5058153;28;20970;-49
2022/02/24 11:58:55;;;;;;;4.03;3.30;;;12.60;70.30;;;;;;5061001;28;21401;-49
2022/02/24 12:01:25;;;;;;;5.23;2.93;;;12.70;70.20;;;;;;5057582;28;20500;-49
2022/02/24 12:04:03;;;;;;;3.80;1.97;;;12.90;67.60;;;;;;5062223;28;20550;-49
2022/02/24 12:06:38;;;;;;;3.00;2.70;;;13.00;66.50;;;;;;5059003;28;21088;-49
2022/02/24 12:09:14;;;;;;;2.63;2.10;;;13.10;66.10;;;;;;5055010;28;20461;-50
2022/02/24 12:11:45;;;;;;;3.47;2.03;;;13.10;66.20;;;;;;5061824;28;20454;-50
2022/02/24 12:14:23;;;;;;;2.77;2.17;;;13.20;65.60;;;;;;5061156;28;20456;-49
2022/02/24 12:17:08;;;;;;;8.93;2.10;;;13.20;65.10;;;;;;5056988;28;20470;-49
2022/02/24 12:19:55;;;;;;;4.20;1.93;;;13.20;64.60;;;;;;5059722;28;20467;-49
2022/02/24 12:22:37;;;;;;;4.23;2.40;;;13.20;66.10;;;;;;5060512;28;20461;-51
2022/02/24 12:25:26;;;;;;;4.50;2.13;;;13.30;65.90;;;;;;5058666;28;20477;-49
2022/02/24 12:28:06;;;;;;;1.90;1.80;;;13.40;66.00;;;;;;5062131;28;20579;-49
2022/02/24 12:30:36;;;;;;;4.03;1.80;;;13.40;65.70;;;;;;5043760;28;20457;-48
2022/02/24 12:33:11;;;;;;;2.80;2.27;;;13.40;64.30;;;;;;5046765;28;20453;-49
2022/02/24 12:35:41;;;;;;;2.73;2.33;;;13.30;65.30;;;;;;5062642;28;20853;-49
2022/02/24 12:38:11;;;;;;;2.13;1.93;;;13.30;65.00;;;;;;5059144;28;20461;-49
2022/02/24 12:40:40;;;;;;;1.93;1.73;;;13.20;65.70;;;;;;5058506;28;20458;-49
2022/02/24 12:43:12;;;;;;;3.23;2.13;;;13.20;65.10;;;;;;5048973;28;20820;-49
2022/02/24 12:45:45;;;;;;;2.27;2.07;;;13.20;64.60;;;;;;5050059;28;20502;-49
2022/02/24 12:48:12;;;;;;;3.50;2.27;;;13.10;64.20;;;;;;5059377;28;20466;-48
2022/02/24 12:50:43;;;;;;;2.30;1.70;;;13.00;65.00;;;;;;5061366;28;20458;-48
2022/02/24 12:53:17;;;;;;;2.53;1.70;;;12.90;65.00;;;;;;5059766;28;20460;-49
2022/02/24 12:55:45;;;;;;;4.07;1.90;;;12.80;65.10;;;;;;5056465;28;20466;-49
2022/02/24 12:58:17;;;;;;;3.40;1.97;;;12.70;65.60;;;;;;5065441;28;20460;-49
2022/02/24 13:00:48;;;;;;;2.33;1.93;;;12.60;66.00;;;;;;5041048;28;20462;-50
2022/02/24 13:03:16;;;;;;;3.40;2.17;;;12.60;66.20;;;;;;5041723;28;20466;-49